createdAt,value
2022-12-11T00:01:45.310Z,78.84
2022-12-11T00:06:50.862Z,79.36
2022-12-11T00:11:53.268Z,78.70
2022-12-11T00:16:55.804Z,78.48
2022-12-11T00:21:58.221Z,79.11
2022-12-11T00:27:00.689Z,78.81
2022-12-11T00:32:03.046Z,79.09
2022-12-11T00:37:05.425Z,79.03
2022-12-11T00:42:09.419Z,79.51
2022-12-11T00:47:11.784Z,79.69
2022-12-11T00:52:14.323Z,79.64
2022-12-11T00:57:16.725Z,79.38
2022-12-11T01:02:19.081Z,80.64
2022-12-11T01:07:21.483Z,79.94
2022-12-11T01:12:23.952Z,79.11
2022-12-11T01:17:26.222Z,78.68
2022-12-11T01:22:28.494Z,78.48
2022-12-11T01:27:30.792Z,78.88
2022-12-11T01:32:33.290Z,79.04
2022-12-11T01:37:35.872Z,79.15
2022-12-11T01:42:38.251Z,79.94
2022-12-11T01:47:40.876Z,80.83
2022-12-11T01:52:45.547Z,81.39
2022-12-11T01:57:50.485Z,81.76
2022-12-11T02:02:52.844Z,82.12
2022-12-11T02:07:59.744Z,81.75
2022-12-11T02:13:14.981Z,81.20
2022-12-11T02:18:20.083Z,80.29
2022-12-11T02:23:46.281Z,79.77
2022-12-11T02:28:56.417Z,79.83
2022-12-11T02:34:23.187Z,80.06
2022-12-11T02:39:27.493Z,79.95
2022-12-11T02:44:32.648Z,80.30
2022-12-11T02:49:36.051Z,80.10
2022-12-11T02:54:41.836Z,80.18
2022-12-11T02:59:45.957Z,80.54
2022-12-11T03:04:48.531Z,80.30
2022-12-11T03:09:51.521Z,80.62
2022-12-11T03:14:54.413Z,81.27
2022-12-11T03:20:02.667Z,80.92
2022-12-11T03:25:10.682Z,80.97
2022-12-11T03:30:19.450Z,80.79
2022-12-11T03:35:31.895Z,80.58
2022-12-11T03:40:37.594Z,80.50
2022-12-11T03:45:41.713Z,80.72
2022-12-11T03:50:44.896Z,80.75
2022-12-11T03:55:50.034Z,80.70
2022-12-11T04:00:52.483Z,80.58
2022-12-11T04:05:56.436Z,81.31
2022-12-11T04:11:17.344Z,80.93
2022-12-11T04:16:19.707Z,80.71
2022-12-11T04:21:40.599Z,80.68
2022-12-11T04:26:45.454Z,80.93
2022-12-11T04:31:47.912Z,81.15
2022-12-11T04:36:50.949Z,81.26
2022-12-11T04:41:53.350Z,81.01
2022-12-11T04:46:55.720Z,81.16
2022-12-11T04:51:58.015Z,81.00
2022-12-11T04:57:00.498Z,81.76
2022-12-11T05:02:02.922Z,81.35
2022-12-11T05:07:05.261Z,81.52
2022-12-11T05:12:07.765Z,81.27
2022-12-11T05:17:10.130Z,80.89
2022-12-11T05:22:12.517Z,81.63
2022-12-11T05:27:14.973Z,81.63
2022-12-11T05:32:17.346Z,81.27
2022-12-11T05:37:19.733Z,81.09
2022-12-11T05:42:28.550Z,81.09
2022-12-11T05:47:32.174Z,83.06
2022-12-11T05:52:34.574Z,82.57
2022-12-11T05:57:36.846Z,82.23
2022-12-11T06:02:39.254Z,82.41
2022-12-11T06:07:41.594Z,81.76
2022-12-11T06:12:43.980Z,81.79
2022-12-11T06:17:46.287Z,81.69
2022-12-11T06:22:49.066Z,81.79
2022-12-11T06:27:51.602Z,81.70
2022-12-11T06:32:53.914Z,81.54
2022-12-11T06:37:56.481Z,81.54
2022-12-11T06:42:58.765Z,81.62
2022-12-11T06:48:01.058Z,81.89
2022-12-11T06:53:04.397Z,82.06
2022-12-11T06:58:06.730Z,81.94
2022-12-11T07:03:10.714Z,81.93
2022-12-11T07:08:13.040Z,83.00
2022-12-11T07:13:15.517Z,82.58
2022-12-11T07:18:17.860Z,82.37
2022-12-11T07:23:20.199Z,81.85
2022-12-11T07:28:22.553Z,82.27
2022-12-11T07:33:24.879Z,81.70
2022-12-11T07:38:27.451Z,81.62
2022-12-11T07:43:30.003Z,81.67
2022-12-11T07:48:32.831Z,81.85
2022-12-11T07:53:35.172Z,81.91
2022-12-11T07:58:39.625Z,81.64
2022-12-11T08:03:43.172Z,81.76
2022-12-11T08:08:47.426Z,82.11
2022-12-11T08:13:50.475Z,82.23
2022-12-11T08:18:54.464Z,82.11
2022-12-11T08:23:57.349Z,82.08
2022-12-11T08:29:01.444Z,81.67
2022-12-11T08:34:04.078Z,81.88
2022-12-11T08:39:06.565Z,81.33
2022-12-11T08:44:16.600Z,81.58
2022-12-11T08:49:19.711Z,81.28
2022-12-11T08:54:22.239Z,81.44
2022-12-11T08:59:26.135Z,81.30
2022-12-11T09:04:28.739Z,81.35
2022-12-11T09:09:31.325Z,81.40
2022-12-11T09:14:33.843Z,81.09
2022-12-11T09:19:36.310Z,80.95
2022-12-11T09:24:40.050Z,80.95
2022-12-11T09:29:42.423Z,80.75
2022-12-11T09:34:45.403Z,80.64
2022-12-11T09:39:48.003Z,80.56
2022-12-11T09:45:03.507Z,80.09
2022-12-11T09:50:12.038Z,79.53
2022-12-11T09:55:18.239Z,79.06
2022-12-11T10:00:40.335Z,78.34
2022-12-11T10:05:48.456Z,77.56
2022-12-11T10:11:28.648Z,76.46
2022-12-11T10:16:44.768Z,75.80
2022-12-11T10:21:50.031Z,75.37
2022-12-11T10:26:58.928Z,75.04
2022-12-11T10:32:02.099Z,73.95
2022-12-11T10:37:04.595Z,72.73
2022-12-11T10:42:19.655Z,71.78
2022-12-11T10:47:22.101Z,72.63
2022-12-11T12:40:07.323Z,78.92
2022-12-11T12:45:30.328Z,79.39
2022-12-11T12:50:40.920Z,78.80
2022-12-11T12:55:44.720Z,79.05
2022-12-11T13:00:47.935Z,78.88
2022-12-11T13:06:11.596Z,78.71
2022-12-11T13:11:17.050Z,78.75
2022-12-11T13:16:19.366Z,79.05
2022-12-11T13:21:28.659Z,78.99
2022-12-11T13:26:33.290Z,78.62
2022-12-11T13:31:40.594Z,79.05
2022-12-11T13:36:49.396Z,78.86
2022-12-11T13:42:22.793Z,77.77
2022-12-11T13:47:26.326Z,76.71
2022-12-11T13:52:29.145Z,75.36
2022-12-11T13:57:31.615Z,74.79
2022-12-11T14:02:43.093Z,74.67
2022-12-11T14:07:52.440Z,73.40
2022-12-11T14:13:02.579Z,72.67
2022-12-11T14:18:06.210Z,69.44
2022-12-11T14:23:18.661Z,69.25
2022-12-11T14:28:22.121Z,67.26
2022-12-11T14:33:31.763Z,67.17
2022-12-11T14:39:00.277Z,65.48
2022-12-11T14:44:07.111Z,64.85
2022-12-11T14:49:22.820Z,65.63
2022-12-11T14:54:51.799Z,67.10
2022-12-11T14:59:55.616Z,68.26
2022-12-11T15:05:18.725Z,69.65
2022-12-11T15:10:27.633Z,70.66
2022-12-11T15:15:33.446Z,70.68
2022-12-11T15:20:35.954Z,70.16
2022-12-11T15:25:38.387Z,70.50
2022-12-11T15:30:41.083Z,71.24
2022-12-11T15:35:55.131Z,71.60
2022-12-11T15:40:58.344Z,71.40
2022-12-11T15:46:02.888Z,72.00
2022-12-11T15:51:05.819Z,71.96
2022-12-11T15:56:13.769Z,71.80
2022-12-11T16:01:16.122Z,72.32
2022-12-11T16:06:18.439Z,72.56
2022-12-11T16:11:20.741Z,72.88
2022-12-11T16:16:23.088Z,72.63
2022-12-11T16:21:25.408Z,73.04
2022-12-11T16:26:27.709Z,73.58
2022-12-11T16:31:30.068Z,73.98
2022-12-11T16:36:32.541Z,74.11
2022-12-11T16:41:34.869Z,75.13
2022-12-11T16:46:38.067Z,74.90
2022-12-11T16:51:40.514Z,74.84
2022-12-11T16:56:43.154Z,74.84
2022-12-11T17:01:45.834Z,74.91
2022-12-11T17:06:49.105Z,76.43
2022-12-11T17:11:51.503Z,77.13
2022-12-11T17:16:53.896Z,76.72
2022-12-11T17:21:57.496Z,77.81
2022-12-11T17:27:00.291Z,79.13
2022-12-11T17:32:03.745Z,78.20
2022-12-11T17:37:06.537Z,78.07
2022-12-11T17:42:08.930Z,77.82
2022-12-11T17:47:12.579Z,78.18
2022-12-11T17:52:15.017Z,77.87
2022-12-11T17:57:17.447Z,77.68
2022-12-11T18:02:19.840Z,77.70
2022-12-11T18:07:23.059Z,77.12
2022-12-11T18:12:25.452Z,77.08
2022-12-11T18:17:27.993Z,77.09
2022-12-11T18:22:30.295Z,76.87
2022-12-11T18:27:32.518Z,77.61
2022-12-11T18:32:35.310Z,77.36
2022-12-11T18:37:38.440Z,76.92
2022-12-11T18:42:40.679Z,76.47
2022-12-11T18:47:42.951Z,76.16
2022-12-11T18:52:45.487Z,76.16
2022-12-11T18:57:48.819Z,75.86
2022-12-11T19:02:53.120Z,75.49
2022-12-11T19:07:55.390Z,75.89
2022-12-11T19:12:57.905Z,75.49
2022-12-11T19:18:00.379Z,75.34
2022-12-11T19:23:02.834Z,75.61
2022-12-11T19:28:05.744Z,75.62
2022-12-11T19:33:07.969Z,75.56
2022-12-11T19:38:10.435Z,75.60
2022-12-11T19:43:12.736Z,75.27
2022-12-11T19:48:15.337Z,75.02
2022-12-11T19:53:17.660Z,75.02
2022-12-11T19:58:20.557Z,74.87
2022-12-11T20:03:22.915Z,74.77
2022-12-11T20:08:44.205Z,74.51
2022-12-11T20:13:51.013Z,74.41
2022-12-11T20:18:55.145Z,74.19
2022-12-11T20:23:57.675Z,73.80
2022-12-11T20:28:59.925Z,73.02
2022-12-11T20:34:02.722Z,73.19
2022-12-11T20:39:05.584Z,73.37
2022-12-11T20:44:08.085Z,73.12
2022-12-11T20:49:13.354Z,73.90
2022-12-11T20:54:15.585Z,73.83
2022-12-11T20:59:18.155Z,73.81
2022-12-11T21:04:20.425Z,74.04
2022-12-11T21:09:26.042Z,74.10
2022-12-11T21:14:29.522Z,73.85
2022-12-11T21:19:31.781Z,74.24
2022-12-11T21:24:34.547Z,72.61
2022-12-11T21:29:36.823Z,72.25
2022-12-11T21:34:39.079Z,72.16
2022-12-11T21:39:41.330Z,71.81
2022-12-11T21:50:06.397Z,71.62
2022-12-11T21:55:09.147Z,71.90
2022-12-11T22:00:12.312Z,71.85
2022-12-11T22:05:14.981Z,72.04
2022-12-11T22:10:17.409Z,71.88
2022-12-11T22:15:20.101Z,71.61
2022-12-11T22:20:22.505Z,71.79
2022-12-11T22:25:25.126Z,72.04
2022-12-11T22:30:27.727Z,71.86
2022-12-11T22:35:30.140Z,71.80
2022-12-11T22:40:32.581Z,69.97
2022-12-11T22:45:39.784Z,69.73
2022-12-11T22:50:42.426Z,69.91
2022-12-11T22:55:44.710Z,69.50
2022-12-11T23:00:47.523Z,69.42
2022-12-11T23:05:49.950Z,69.15
2022-12-11T23:10:52.888Z,69.25
2022-12-11T23:15:55.141Z,69.05
2022-12-11T23:20:57.835Z,69.33
2022-12-11T23:26:00.372Z,69.15
2022-12-11T23:31:02.959Z,68.77
2022-12-11T23:36:05.852Z,68.43
2022-12-11T23:41:10.651Z,67.50
2022-12-11T23:46:16.539Z,67.19
2022-12-11T23:51:21.031Z,67.03
2022-12-11T23:56:26.728Z,66.92
